Huvudsida
METAR-TAF:

METAR-TAF

Flygplatser :

Sindals flygplats

Sindal, Danmark

latitud: 57-30N, longitud: 010-13E, höjd: 28 m

Aktuellt väderrapport

Denna rapport gjordes för 5 timmar och 8 minuter sedan, klockan 13:50 UTC
Vind 18 kt från väst
Temperatur 15°C
Fuktighet 82%
Tryck 1021 hPa
Sikt 10 km eller mer
Brutna moln på en höjd av 1500 ft

METAR: EKSN 201350Z 26018KT 9999 BKN015 15/12 Q1021

Tid: 20:58 (18:58 UTC)

Väderprognos

Denna rapport gjordes för 10 timmar och 6 minuter sedan, klockan 08:52 UTC
Prognos gäller från 20 kl. 09 UTC till 20 kl. 15 UTC
Vind 12 kt från väst
Sikt 10 km eller mer
Brutna moln på en höjd av 2000 ft

TAF: EKSN 200852Z 2009/2015 27012KT 9999 BKN020

Aktuella väderrapporter och prognoser från 4000 flygplatser (METAR- och TAF-rapporter).

De tillgängliga stationerna syns som gula och röda prickar på kartan.

För musen över prickarna för att se namnen på stationerna.

Klicka sedan för att få väderrapporter och prognoser.

För att ändra kartan: Klicka på de gröna knapparna med ett svart kors på för att zooma in; den gröna knappen med ett streck på för att zooma ut; eller på de gröna pilarna för angränsande kartor.


METAR-TAF: